sensor_id;sensor_type;location;lat;lon;timestamp;P1;durP1;ratioP1;P2;durP2;ratioP2
43841;SDS011;29495;49.970;20.842;2022-11-15T00:02:00;17.98;;;10.02;;
43841;SDS011;29495;49.970;20.842;2022-11-15T00:04:47;17.88;;;11.27;;
43841;SDS011;29495;49.970;20.842;2022-11-15T00:07:32;25.17;;;13.80;;
43841;SDS011;29495;49.970;20.842;2022-11-15T00:10:17;23.63;;;12.75;;
43841;SDS011;29495;49.970;20.842;2022-11-15T00:13:11;21.25;;;11.80;;
43841;SDS011;29495;49.970;20.842;2022-11-15T00:15:57;23.25;;;10.75;;
43841;SDS011;29495;49.970;20.842;2022-11-15T00:18:43;21.60;;;12.15;;
43841;SDS011;29495;49.970;20.842;2022-11-15T00:21:27;23.13;;;12.15;;
43841;SDS011;29495;49.970;20.842;2022-11-15T00:24:12;18.65;;;10.23;;
43841;SDS011;29495;49.970;20.842;2022-11-15T00:26:56;22.42;;;11.57;;
43841;SDS011;29495;49.970;20.842;2022-11-15T00:29:41;18.95;;;9.85;;
43841;SDS011;29495;49.970;20.842;2022-11-15T00:32:32;19.45;;;11.52;;
43841;SDS011;29495;49.970;20.842;2022-11-15T00:35:17;20.50;;;9.85;;
43841;SDS011;29495;49.970;20.842;2022-11-15T00:38:02;17.75;;;10.70;;
43841;SDS011;29495;49.970;20.842;2022-11-15T00:40:47;13.27;;;8.55;;
43841;SDS011;29495;49.970;20.842;2022-11-15T00:43:32;14.05;;;8.35;;
43841;SDS011;29495;49.970;20.842;2022-11-15T00:46:17;17.90;;;9.40;;
43841;SDS011;29495;49.970;20.842;2022-11-15T00:49:02;16.80;;;9.48;;
43841;SDS011;29495;49.970;20.842;2022-11-15T00:51:46;16.73;;;9.07;;
43841;SDS011;29495;49.970;20.842;2022-11-15T00:54:31;17.58;;;9.63;;
43841;SDS011;29495;49.970;20.842;2022-11-15T00:57:15;14.18;;;8.40;;
43841;SDS011;29495;49.970;20.842;2022-11-15T01:00:00;15.85;;;8.73;;
43841;SDS011;29495;49.970;20.842;2022-11-15T01:02:45;14.27;;;8.27;;
43841;SDS011;29495;49.970;20.842;2022-11-15T01:05:29;16.95;;;7.97;;
43841;SDS011;29495;49.970;20.842;2022-11-15T01:08:14;15.82;;;8.48;;
43841;SDS011;29495;49.970;20.842;2022-11-15T01:11:06;14.65;;;8.00;;
43841;SDS011;29495;49.970;20.842;2022-11-15T01:13:52;12.65;;;7.25;;
43841;SDS011;29495;49.970;20.842;2022-11-15T01:16:39;14.02;;;7.90;;
43841;SDS011;29495;49.970;20.842;2022-11-15T01:19:24;10.05;;;6.82;;
43841;SDS011;29495;49.970;20.842;2022-11-15T01:22:08;10.18;;;6.60;;
43841;SDS011;29495;49.970;20.842;2022-11-15T01:24:52;13.05;;;7.00;;
43841;SDS011;29495;49.970;20.842;2022-11-15T01:27:38;13.65;;;7.88;;
43841;SDS011;29495;49.970;20.842;2022-11-15T01:30:22;12.20;;;7.65;;
43841;SDS011;29495;49.970;20.842;2022-11-15T01:33:06;12.23;;;7.18;;
43841;SDS011;29495;49.970;20.842;2022-11-15T01:35:51;10.73;;;6.47;;
43841;SDS011;29495;49.970;20.842;2022-11-15T01:38:35;11.75;;;7.00;;
43841;SDS011;29495;49.970;20.842;2022-11-15T01:41:22;11.18;;;6.85;;
43841;SDS011;29495;49.970;20.842;2022-11-15T01:44:36;10.45;;;6.85;;
43841;SDS011;29495;49.970;20.842;2022-11-15T01:47:23;11.20;;;7.10;;
43841;SDS011;29495;49.970;20.842;2022-11-15T01:50:16;10.52;;;6.68;;
43841;SDS011;29495;49.970;20.842;2022-11-15T01:53:04;12.55;;;7.18;;
43841;SDS011;29495;49.970;20.842;2022-11-15T01:55:49;10.43;;;6.97;;
43841;SDS011;29495;49.970;20.842;2022-11-15T01:58:34;12.85;;;7.35;;
43841;SDS011;29495;49.970;20.842;2022-11-15T02:01:19;11.77;;;7.22;;
43841;SDS011;29495;49.970;20.842;2022-11-15T02:04:10;13.15;;;8.50;;
43841;SDS011;29495;49.970;20.842;2022-11-15T02:07:09;11.55;;;6.50;;
43841;SDS011;29495;49.970;20.842;2022-11-15T02:09:59;10.45;;;6.18;;
43841;SDS011;29495;49.970;20.842;2022-11-15T02:12:49;11.15;;;7.50;;
43841;SDS011;29495;49.970;20.842;2022-11-15T02:15:38;11.13;;;7.13;;
43841;SDS011;29495;49.970;20.842;2022-11-15T02:18:32;9.75;;;6.50;;
43841;SDS011;29495;49.970;20.842;2022-11-15T02:21:42;9.73;;;6.15;;
43841;SDS011;29495;49.970;20.842;2022-11-15T02:24:37;9.93;;;6.15;;
43841;SDS011;29495;49.970;20.842;2022-11-15T02:31:03;8.70;;;6.38;;
43841;SDS011;29495;49.970;20.842;2022-11-15T02:40:20;14.13;;;8.27;;
43841;SDS011;29495;49.970;20.842;2022-11-15T02:43:39;12.18;;;7.47;;
43841;SDS011;29495;49.970;20.842;2022-11-15T02:46:45;12.82;;;7.85;;
43841;SDS011;29495;49.970;20.842;2022-11-15T02:49:53;12.70;;;7.68;;
43841;SDS011;29495;49.970;20.842;2022-11-15T02:52:40;13.70;;;8.57;;
43841;SDS011;29495;49.970;20.842;2022-11-15T02:55:26;15.70;;;8.70;;
43841;SDS011;29495;49.970;20.842;2022-11-15T03:04:33;8.00;;;6.15;;
43841;SDS011;29495;49.970;20.842;2022-11-15T03:07:50;10.25;;;6.53;;
43841;SDS011;29495;49.970;20.842;2022-11-15T03:16:49;13.52;;;8.43;;
43841;SDS011;29495;49.970;20.842;2022-11-15T03:20:03;12.38;;;7.90;;
43841;SDS011;29495;49.970;20.842;2022-11-15T03:22:49;10.48;;;6.80;;
43841;SDS011;29495;49.970;20.842;2022-11-15T03:25:38;10.10;;;7.03;;
43841;SDS011;29495;49.970;20.842;2022-11-15T03:28:37;12.60;;;7.88;;
43841;SDS011;29495;49.970;20.842;2022-11-15T03:31:34;12.13;;;8.13;;
43841;SDS011;29495;49.970;20.842;2022-11-15T03:34:41;13.55;;;8.13;;
43841;SDS011;29495;49.970;20.842;2022-11-15T03:37:33;12.60;;;8.20;;
43841;SDS011;29495;49.970;20.842;2022-11-15T03:43:47;10.88;;;7.22;;
43841;SDS011;29495;49.970;20.842;2022-11-15T03:46:47;12.85;;;8.50;;
43841;SDS011;29495;49.970;20.842;2022-11-15T03:49:51;11.52;;;7.47;;
43841;SDS011;29495;49.970;20.842;2022-11-15T03:52:39;10.65;;;6.88;;
43841;SDS011;29495;49.970;20.842;2022-11-15T03:55:25;9.45;;;6.50;;
43841;SDS011;29495;49.970;20.842;2022-11-15T03:58:10;10.98;;;7.25;;
43841;SDS011;29495;49.970;20.842;2022-11-15T04:00:54;14.43;;;9.25;;
43841;SDS011;29495;49.970;20.842;2022-11-15T04:03:39;14.40;;;9.10;;
43841;SDS011;29495;49.970;20.842;2022-11-15T04:06:23;18.38;;;9.77;;
43841;SDS011;29495;49.970;20.842;2022-11-15T04:09:08;20.58;;;10.85;;
43841;SDS011;29495;49.970;20.842;2022-11-15T04:11:53;15.98;;;10.55;;
43841;SDS011;29495;49.970;20.842;2022-11-15T04:14:37;15.20;;;10.50;;
43841;SDS011;29495;49.970;20.842;2022-11-15T04:20:28;13.00;;;8.20;;
43841;SDS011;29495;49.970;20.842;2022-11-15T04:23:33;12.80;;;9.07;;
43841;SDS011;29495;49.970;20.842;2022-11-15T04:26:50;12.60;;;8.20;;
43841;SDS011;29495;49.970;20.842;2022-11-15T04:29:34;11.18;;;7.97;;
43841;SDS011;29495;49.970;20.842;2022-11-15T04:32:19;12.82;;;7.88;;
43841;SDS011;29495;49.970;20.842;2022-11-15T04:35:04;11.07;;;7.40;;
43841;SDS011;29495;49.970;20.842;2022-11-15T04:37:49;9.93;;;6.50;;
43841;SDS011;29495;49.970;20.842;2022-11-15T04:40:33;9.88;;;6.82;;
43841;SDS011;29495;49.970;20.842;2022-11-15T04:43:18;14.52;;;7.50;;
43841;SDS011;29495;49.970;20.842;2022-11-15T04:46:02;11.07;;;7.65;;
43841;SDS011;29495;49.970;20.842;2022-11-15T04:48:47;9.98;;;7.20;;
43841;SDS011;29495;49.970;20.842;2022-11-15T04:51:31;10.95;;;7.28;;
43841;SDS011;29495;49.970;20.842;2022-11-15T04:54:16;11.55;;;7.32;;
43841;SDS011;29495;49.970;20.842;2022-11-15T04:57:01;12.40;;;7.90;;
43841;SDS011;29495;49.970;20.842;2022-11-15T04:59:45;17.25;;;7.97;;
43841;SDS011;29495;49.970;20.842;2022-11-15T05:02:30;13.90;;;8.85;;
43841;SDS011;29495;49.970;20.842;2022-11-15T05:05:35;13.70;;;8.73;;
43841;SDS011;29495;49.970;20.842;2022-11-15T05:08:19;11.50;;;7.63;;
43841;SDS011;29495;49.970;20.842;2022-11-15T05:11:04;13.02;;;8.98;;
43841;SDS011;29495;49.970;20.842;2022-11-15T05:13:48;12.13;;;8.30;;
43841;SDS011;29495;49.970;20.842;2022-11-15T05:16:33;12.95;;;8.35;;
43841;SDS011;29495;49.970;20.842;2022-11-15T05:19:18;11.77;;;7.70;;
43841;SDS011;29495;49.970;20.842;2022-11-15T05:22:03;12.05;;;8.20;;
43841;SDS011;29495;49.970;20.842;2022-11-15T05:24:47;14.88;;;10.07;;
43841;SDS011;29495;49.970;20.842;2022-11-15T05:27:32;11.23;;;7.72;;
43841;SDS011;29495;49.970;20.842;2022-11-15T05:30:18;10.32;;;7.72;;
43841;SDS011;29495;49.970;20.842;2022-11-15T05:33:02;13.73;;;8.23;;
43841;SDS011;29495;49.970;20.842;2022-11-15T05:35:49;11.50;;;7.82;;
43841;SDS011;29495;49.970;20.842;2022-11-15T05:38:38;12.00;;;7.68;;
43841;SDS011;29495;49.970;20.842;2022-11-15T05:41:31;14.05;;;8.32;;
43841;SDS011;29495;49.970;20.842;2022-11-15T05:44:30;10.95;;;6.85;;
43841;SDS011;29495;49.970;20.842;2022-11-15T05:47:19;10.68;;;6.88;;
43841;SDS011;29495;49.970;20.842;2022-11-15T05:50:10;10.95;;;7.63;;
43841;SDS011;29495;49.970;20.842;2022-11-15T05:52:57;12.15;;;7.70;;
43841;SDS011;29495;49.970;20.842;2022-11-15T05:55:42;11.90;;;7.57;;
43841;SDS011;29495;49.970;20.842;2022-11-15T05:58:27;13.18;;;7.50;;
43841;SDS011;29495;49.970;20.842;2022-11-15T06:01:11;11.48;;;6.65;;
43841;SDS011;29495;49.970;20.842;2022-11-15T06:03:56;12.43;;;8.55;;
43841;SDS011;29495;49.970;20.842;2022-11-15T06:06:41;11.60;;;7.97;;
43841;SDS011;29495;49.970;20.842;2022-11-15T06:09:25;10.27;;;6.95;;
43841;SDS011;29495;49.970;20.842;2022-11-15T06:12:10;13.40;;;8.38;;
43841;SDS011;29495;49.970;20.842;2022-11-15T06:14:54;13.90;;;8.77;;
43841;SDS011;29495;49.970;20.842;2022-11-15T06:17:39;14.48;;;9.45;;
43841;SDS011;29495;49.970;20.842;2022-11-15T06:20:27;14.07;;;9.32;;
43841;SDS011;29495;49.970;20.842;2022-11-15T06:25:57;15.57;;;9.50;;
43841;SDS011;29495;49.970;20.842;2022-11-15T06:28:42;16.15;;;9.93;;
43841;SDS011;29495;49.970;20.842;2022-11-15T06:31:27;17.17;;;9.15;;
43841;SDS011;29495;49.970;20.842;2022-11-15T06:34:11;16.27;;;9.50;;
43841;SDS011;29495;49.970;20.842;2022-11-15T06:36:56;14.00;;;9.35;;
43841;SDS011;29495;49.970;20.842;2022-11-15T06:39:41;15.52;;;9.82;;
43841;SDS011;29495;49.970;20.842;2022-11-15T06:42:26;17.42;;;10.68;;
43841;SDS011;29495;49.970;20.842;2022-11-15T06:45:10;12.82;;;8.73;;
43841;SDS011;29495;49.970;20.842;2022-11-15T06:47:55;11.98;;;8.60;;
43841;SDS011;29495;49.970;20.842;2022-11-15T06:50:39;12.10;;;7.80;;
43841;SDS011;29495;49.970;20.842;2022-11-15T06:53:24;13.35;;;8.35;;
43841;SDS011;29495;49.970;20.842;2022-11-15T06:56:09;12.20;;;8.18;;
43841;SDS011;29495;49.970;20.842;2022-11-15T06:58:54;12.30;;;8.00;;
43841;SDS011;29495;49.970;20.842;2022-11-15T07:01:39;11.63;;;8.00;;
43841;SDS011;29495;49.970;20.842;2022-11-15T07:04:24;12.82;;;8.13;;
43841;SDS011;29495;49.970;20.842;2022-11-15T07:07:09;11.75;;;8.95;;
43841;SDS011;29495;49.970;20.842;2022-11-15T07:09:54;14.02;;;8.25;;
43841;SDS011;29495;49.970;20.842;2022-11-15T07:12:38;11.88;;;8.60;;
43841;SDS011;29495;49.970;20.842;2022-11-15T07:15:23;11.27;;;7.68;;
43841;SDS011;29495;49.970;20.842;2022-11-15T07:18:09;9.98;;;7.82;;
43841;SDS011;29495;49.970;20.842;2022-11-15T07:20:53;11.50;;;7.70;;
43841;SDS011;29495;49.970;20.842;2022-11-15T07:23:38;10.27;;;7.53;;
43841;SDS011;29495;49.970;20.842;2022-11-15T07:26:23;10.15;;;7.07;;
43841;SDS011;29495;49.970;20.842;2022-11-15T07:29:08;9.50;;;7.00;;
43841;SDS011;29495;49.970;20.842;2022-11-15T07:31:53;12.65;;;8.30;;
43841;SDS011;29495;49.970;20.842;2022-11-15T07:34:37;11.02;;;7.53;;
43841;SDS011;29495;49.970;20.842;2022-11-15T07:37:22;11.88;;;8.43;;
43841;SDS011;29495;49.970;20.842;2022-11-15T07:40:07;14.98;;;8.82;;
43841;SDS011;29495;49.970;20.842;2022-11-15T07:42:52;14.15;;;8.50;;
43841;SDS011;29495;49.970;20.842;2022-11-15T07:45:42;12.43;;;8.70;;
43841;SDS011;29495;49.970;20.842;2022-11-15T07:48:28;12.93;;;8.07;;
43841;SDS011;29495;49.970;20.842;2022-11-15T07:51:13;11.73;;;8.63;;
43841;SDS011;29495;49.970;20.842;2022-11-15T07:53:59;14.23;;;8.52;;
43841;SDS011;29495;49.970;20.842;2022-11-15T07:56:43;14.13;;;9.05;;
43841;SDS011;29495;49.970;20.842;2022-11-15T07:59:28;13.40;;;8.63;;
43841;SDS011;29495;49.970;20.842;2022-11-15T08:02:12;12.18;;;8.38;;
43841;SDS011;29495;49.970;20.842;2022-11-15T08:04:56;11.15;;;8.15;;
43841;SDS011;29495;49.970;20.842;2022-11-15T08:07:41;13.20;;;8.35;;
43841;SDS011;29495;49.970;20.842;2022-11-15T08:10:26;12.98;;;9.00;;
43841;SDS011;29495;49.970;20.842;2022-11-15T08:13:12;13.38;;;9.30;;
43841;SDS011;29495;49.970;20.842;2022-11-15T08:15:57;13.00;;;8.95;;
43841;SDS011;29495;49.970;20.842;2022-11-15T08:21:30;15.45;;;10.18;;
43841;SDS011;29495;49.970;20.842;2022-11-15T08:24:14;15.38;;;8.40;;
43841;SDS011;29495;49.970;20.842;2022-11-15T08:26:59;12.82;;;8.73;;
43841;SDS011;29495;49.970;20.842;2022-11-15T08:29:44;13.73;;;8.20;;
43841;SDS011;29495;49.970;20.842;2022-11-15T08:32:30;11.13;;;8.15;;
43841;SDS011;29495;49.970;20.842;2022-11-15T08:35:16;12.57;;;7.40;;
43841;SDS011;29495;49.970;20.842;2022-11-15T08:38:01;11.07;;;7.35;;
43841;SDS011;29495;49.970;20.842;2022-11-15T08:40:45;12.30;;;8.52;;
43841;SDS011;29495;49.970;20.842;2022-11-15T08:43:30;12.25;;;8.25;;
43841;SDS011;29495;49.970;20.842;2022-11-15T08:46:14;12.38;;;7.90;;
43841;SDS011;29495;49.970;20.842;2022-11-15T08:48:59;13.30;;;8.00;;
43841;SDS011;29495;49.970;20.842;2022-11-15T08:51:44;10.68;;;7.75;;
43841;SDS011;29495;49.970;20.842;2022-11-15T08:54:28;12.15;;;8.18;;
43841;SDS011;29495;49.970;20.842;2022-11-15T08:57:13;10.45;;;7.38;;
43841;SDS011;29495;49.970;20.842;2022-11-15T08:59:57;9.27;;;7.28;;
43841;SDS011;29495;49.970;20.842;2022-11-15T09:02:42;14.52;;;8.07;;
43841;SDS011;29495;49.970;20.842;2022-11-15T09:05:26;10.00;;;7.15;;
43841;SDS011;29495;49.970;20.842;2022-11-15T09:08:11;11.20;;;7.03;;
43841;SDS011;29495;49.970;20.842;2022-11-15T09:10:56;12.57;;;8.05;;
43841;SDS011;29495;49.970;20.842;2022-11-15T09:13:41;10.93;;;7.32;;
43841;SDS011;29495;49.970;20.842;2022-11-15T09:16:26;9.18;;;6.47;;
43841;SDS011;29495;49.970;20.842;2022-11-15T09:19:10;8.27;;;6.15;;
43841;SDS011;29495;49.970;20.842;2022-11-15T09:21:55;10.93;;;6.47;;
43841;SDS011;29495;49.970;20.842;2022-11-15T09:24:40;6.53;;;4.57;;
43841;SDS011;29495;49.970;20.842;2022-11-15T09:27:29;7.03;;;4.55;;
43841;SDS011;29495;49.970;20.842;2022-11-15T09:30:14;8.40;;;5.30;;
43841;SDS011;29495;49.970;20.842;2022-11-15T09:33:05;6.28;;;4.38;;
43841;SDS011;29495;49.970;20.842;2022-11-15T09:35:53;5.85;;;3.90;;
43841;SDS011;29495;49.970;20.842;2022-11-15T09:38:38;7.50;;;4.80;;
43841;SDS011;29495;49.970;20.842;2022-11-15T09:50:51;6.45;;;4.38;;
43841;SDS011;29495;49.970;20.842;2022-11-15T09:53:25;8.07;;;5.30;;
43841;SDS011;29495;49.970;20.842;2022-11-15T09:56:05;5.45;;;4.32;;
43841;SDS011;29495;49.970;20.842;2022-11-15T10:04:20;7.47;;;5.53;;
43841;SDS011;29495;49.970;20.842;2022-11-15T10:07:13;7.55;;;5.00;;
43841;SDS011;29495;49.970;20.842;2022-11-15T10:09:47;6.05;;;4.07;;
43841;SDS011;29495;49.970;20.842;2022-11-15T10:12:50;5.82;;;4.28;;
43841;SDS011;29495;49.970;20.842;2022-11-15T10:15:18;6.10;;;3.88;;
43841;SDS011;29495;49.970;20.842;2022-11-15T10:20:50;6.35;;;3.90;;
43841;SDS011;29495;49.970;20.842;2022-11-15T10:23:21;5.93;;;4.10;;
43841;SDS011;29495;49.970;20.842;2022-11-15T10:25:50;7.20;;;3.92;;
43841;SDS011;29495;49.970;20.842;2022-11-15T10:28:27;5.70;;;4.22;;
43841;SDS011;29495;49.970;20.842;2022-11-15T10:30:56;5.88;;;4.10;;
43841;SDS011;29495;49.970;20.842;2022-11-15T10:33:33;5.70;;;4.10;;
43841;SDS011;29495;49.970;20.842;2022-11-15T10:39:10;6.65;;;5.13;;
43841;SDS011;29495;49.970;20.842;2022-11-15T10:49:24;6.07;;;4.57;;
43841;SDS011;29495;49.970;20.842;2022-11-15T10:52:15;8.82;;;5.43;;
43841;SDS011;29495;49.970;20.842;2022-11-15T10:57:20;6.18;;;4.60;;
43841;SDS011;29495;49.970;20.842;2022-11-15T11:00:03;7.43;;;4.45;;
43841;SDS011;29495;49.970;20.842;2022-11-15T11:04:57;7.85;;;5.35;;
43841;SDS011;29495;49.970;20.842;2022-11-15T11:07:26;10.25;;;6.25;;
43841;SDS011;29495;49.970;20.842;2022-11-15T11:09:57;11.80;;;7.10;;
43841;SDS011;29495;49.970;20.842;2022-11-15T11:12:27;10.18;;;6.32;;
43841;SDS011;29495;49.970;20.842;2022-11-15T11:14:58;10.75;;;6.20;;
43841;SDS011;29495;49.970;20.842;2022-11-15T11:17:38;10.82;;;6.93;;
43841;SDS011;29495;49.970;20.842;2022-11-15T11:34:00;8.43;;;5.75;;
43841;SDS011;29495;49.970;20.842;2022-11-15T11:39:22;9.38;;;6.40;;
43841;SDS011;29495;49.970;20.842;2022-11-15T11:42:04;9.10;;;6.05;;
43841;SDS011;29495;49.970;20.842;2022-11-15T11:44:44;7.22;;;5.05;;
43841;SDS011;29495;49.970;20.842;2022-11-15T11:47:28;7.47;;;5.75;;
43841;SDS011;29495;49.970;20.842;2022-11-15T11:50:41;8.75;;;5.70;;
43841;SDS011;29495;49.970;20.842;2022-11-15T11:58:09;8.32;;;5.20;;
43841;SDS011;29495;49.970;20.842;2022-11-15T12:00:49;6.43;;;4.78;;
43841;SDS011;29495;49.970;20.842;2022-11-15T12:03:29;6.35;;;4.30;;
43841;SDS011;29495;49.970;20.842;2022-11-15T12:06:00;7.35;;;4.43;;
43841;SDS011;29495;49.970;20.842;2022-11-15T12:11:23;6.93;;;4.60;;
43841;SDS011;29495;49.970;20.842;2022-11-15T12:14:00;8.50;;;5.35;;
43841;SDS011;29495;49.970;20.842;2022-11-15T12:16:30;10.13;;;5.57;;
43841;SDS011;29495;49.970;20.842;2022-11-15T12:19:01;10.03;;;6.27;;
43841;SDS011;29495;49.970;20.842;2022-11-15T12:26:50;8.15;;;5.43;;
43841;SDS011;29495;49.970;20.842;2022-11-15T12:31:52;10.18;;;6.00;;
43841;SDS011;29495;49.970;20.842;2022-11-15T12:36:48;11.68;;;7.32;;
43841;SDS011;29495;49.970;20.842;2022-11-15T12:39:16;10.05;;;7.00;;
43841;SDS011;29495;49.970;20.842;2022-11-15T13:02:30;13.88;;;8.05;;
43841;SDS011;29495;49.970;20.842;2022-11-15T13:17:44;12.23;;;7.50;;
43841;SDS011;29495;49.970;20.842;2022-11-15T13:23:01;13.43;;;8.65;;
43841;SDS011;29495;49.970;20.842;2022-11-15T13:36:08;12.48;;;6.47;;
43841;SDS011;29495;49.970;20.842;2022-11-15T13:38:41;10.45;;;6.97;;
43841;SDS011;29495;49.970;20.842;2022-11-15T13:41:17;12.20;;;7.07;;
43841;SDS011;29495;49.970;20.842;2022-11-15T13:43:49;9.98;;;6.57;;
43841;SDS011;29495;49.970;20.842;2022-11-15T13:46:17;9.32;;;5.78;;
43841;SDS011;29495;49.970;20.842;2022-11-15T13:48:55;12.70;;;8.00;;
43841;SDS011;29495;49.970;20.842;2022-11-15T13:54:08;8.88;;;6.32;;
43841;SDS011;29495;49.970;20.842;2022-11-15T13:57:13;8.77;;;6.43;;
43841;SDS011;29495;49.970;20.842;2022-11-15T14:00:23;9.63;;;6.72;;
43841;SDS011;29495;49.970;20.842;2022-11-15T14:02:37;11.60;;;7.45;;
43841;SDS011;29495;49.970;20.842;2022-11-15T14:05:17;8.52;;;6.28;;
43841;SDS011;29495;49.970;20.842;2022-11-15T14:07:54;10.00;;;7.57;;
43841;SDS011;29495;49.970;20.842;2022-11-15T14:10:29;12.18;;;8.07;;
43841;SDS011;29495;49.970;20.842;2022-11-15T14:12:57;13.45;;;8.05;;
43841;SDS011;29495;49.970;20.842;2022-11-15T14:15:34;11.05;;;7.00;;
43841;SDS011;29495;49.970;20.842;2022-11-15T14:18:02;10.05;;;7.13;;
43841;SDS011;29495;49.970;20.842;2022-11-15T14:22:58;14.70;;;8.63;;
43841;SDS011;29495;49.970;20.842;2022-11-15T14:25:26;13.70;;;9.10;;
43841;SDS011;29495;49.970;20.842;2022-11-15T14:28:38;14.10;;;9.10;;
43841;SDS011;29495;49.970;20.842;2022-11-15T14:30:45;12.30;;;7.85;;
43841;SDS011;29495;49.970;20.842;2022-11-15T14:33:36;10.85;;;7.40;;
43841;SDS011;29495;49.970;20.842;2022-11-15T14:38:41;18.30;;;8.60;;
43841;SDS011;29495;49.970;20.842;2022-11-15T14:43:44;14.07;;;8.52;;
43841;SDS011;29495;49.970;20.842;2022-11-15T14:46:10;27.50;;;15.35;;
43841;SDS011;29495;49.970;20.842;2022-11-15T14:48:36;47.97;;;25.15;;
43841;SDS011;29495;49.970;20.842;2022-11-15T14:51:02;73.07;;;35.33;;
43841;SDS011;29495;49.970;20.842;2022-11-15T14:53:28;83.88;;;41.70;;
43841;SDS011;29495;49.970;20.842;2022-11-15T14:55:54;75.90;;;40.20;;
43841;SDS011;29495;49.970;20.842;2022-11-15T14:58:20;67.30;;;36.10;;
43841;SDS011;29495;49.970;20.842;2022-11-15T15:00:46;57.80;;;31.85;;
43841;SDS011;29495;49.970;20.842;2022-11-15T15:03:12;46.00;;;25.02;;
43841;SDS011;29495;49.970;20.842;2022-11-15T15:05:39;39.72;;;21.60;;
43841;SDS011;29495;49.970;20.842;2022-11-15T15:08:07;32.10;;;18.95;;
43841;SDS011;29495;49.970;20.842;2022-11-15T15:10:37;36.50;;;19.17;;
43841;SDS011;29495;49.970;20.842;2022-11-15T15:13:29;33.67;;;18.48;;
43841;SDS011;29495;49.970;20.842;2022-11-15T15:15:55;37.13;;;20.77;;
43841;SDS011;29495;49.970;20.842;2022-11-15T15:18:21;37.00;;;20.33;;
43841;SDS011;29495;49.970;20.842;2022-11-15T15:20:54;31.63;;;18.05;;
43841;SDS011;29495;49.970;20.842;2022-11-15T15:23:23;27.35;;;14.88;;
43841;SDS011;29495;49.970;20.842;2022-11-15T15:25:50;21.70;;;12.13;;
43841;SDS011;29495;49.970;20.842;2022-11-15T15:28:17;20.10;;;11.80;;
43841;SDS011;29495;49.970;20.842;2022-11-15T15:30:44;19.20;;;11.65;;
43841;SDS011;29495;49.970;20.842;2022-11-15T15:33:09;20.27;;;12.20;;
43841;SDS011;29495;49.970;20.842;2022-11-15T15:35:35;17.73;;;10.82;;
43841;SDS011;29495;49.970;20.842;2022-11-15T15:38:01;27.92;;;16.92;;
43841;SDS011;29495;49.970;20.842;2022-11-15T15:40:28;36.30;;;17.92;;
43841;SDS011;29495;49.970;20.842;2022-11-15T15:42:56;34.40;;;18.87;;
43841;SDS011;29495;49.970;20.842;2022-11-15T15:45:22;39.80;;;21.30;;
43841;SDS011;29495;49.970;20.842;2022-11-15T15:47:50;32.70;;;18.25;;
43841;SDS011;29495;49.970;20.842;2022-11-15T15:50:31;35.63;;;17.30;;
43841;SDS011;29495;49.970;20.842;2022-11-15T15:52:59;33.65;;;18.80;;
43841;SDS011;29495;49.970;20.842;2022-11-15T15:55:27;32.50;;;18.48;;
43841;SDS011;29495;49.970;20.842;2022-11-15T15:57:53;40.13;;;21.15;;
43841;SDS011;29495;49.970;20.842;2022-11-15T16:00:20;40.97;;;22.98;;
43841;SDS011;29495;49.970;20.842;2022-11-15T16:05:15;40.22;;;20.80;;
43841;SDS011;29495;49.970;20.842;2022-11-15T16:07:41;49.30;;;26.48;;
43841;SDS011;29495;49.970;20.842;2022-11-15T16:12:46;45.92;;;25.88;;
43841;SDS011;29495;49.970;20.842;2022-11-15T16:15:12;43.85;;;25.42;;
43841;SDS011;29495;49.970;20.842;2022-11-15T16:17:39;43.72;;;24.38;;
43841;SDS011;29495;49.970;20.842;2022-11-15T16:20:11;51.15;;;28.70;;
43841;SDS011;29495;49.970;20.842;2022-11-15T16:22:58;55.85;;;30.63;;
43841;SDS011;29495;49.970;20.842;2022-11-15T16:25:24;55.35;;;27.80;;
43841;SDS011;29495;49.970;20.842;2022-11-15T16:27:50;59.33;;;31.08;;
43841;SDS011;29495;49.970;20.842;2022-11-15T16:30:18;59.08;;;31.70;;
43841;SDS011;29495;49.970;20.842;2022-11-15T16:32:46;62.85;;;33.80;;
43841;SDS011;29495;49.970;20.842;2022-11-15T16:35:12;69.13;;;32.45;;
43841;SDS011;29495;49.970;20.842;2022-11-15T16:37:39;71.78;;;33.65;;
43841;SDS011;29495;49.970;20.842;2022-11-15T16:40:48;61.53;;;31.83;;
43841;SDS011;29495;49.970;20.842;2022-11-15T16:42:58;63.00;;;33.50;;
43841;SDS011;29495;49.970;20.842;2022-11-15T16:45:26;62.20;;;31.88;;
43841;SDS011;29495;49.970;20.842;2022-11-15T16:47:53;69.47;;;33.25;;
43841;SDS011;29495;49.970;20.842;2022-11-15T16:50:21;66.00;;;33.17;;
43841;SDS011;29495;49.970;20.842;2022-11-15T16:52:50;59.78;;;32.97;;
43841;SDS011;29495;49.970;20.842;2022-11-15T16:55:23;61.30;;;32.60;;
43841;SDS011;29495;49.970;20.842;2022-11-15T16:57:53;60.88;;;32.47;;
43841;SDS011;29495;49.970;20.842;2022-11-15T17:00:22;61.20;;;31.77;;
43841;SDS011;29495;49.970;20.842;2022-11-15T17:02:49;61.25;;;31.33;;
43841;SDS011;29495;49.970;20.842;2022-11-15T17:05:16;60.92;;;30.73;;
43841;SDS011;29495;49.970;20.842;2022-11-15T17:07:45;57.22;;;29.48;;
43841;SDS011;29495;49.970;20.842;2022-11-15T17:10:14;52.13;;;27.65;;
43841;SDS011;29495;49.970;20.842;2022-11-15T17:12:41;57.67;;;28.48;;
43841;SDS011;29495;49.970;20.842;2022-11-15T17:15:07;54.47;;;28.17;;
43841;SDS011;29495;49.970;20.842;2022-11-15T17:17:35;52.70;;;27.38;;
43841;SDS011;29495;49.970;20.842;2022-11-15T17:20:01;42.45;;;22.27;;
43841;SDS011;29495;49.970;20.842;2022-11-15T17:22:29;39.00;;;20.30;;
43841;SDS011;29495;49.970;20.842;2022-11-15T17:24:56;37.60;;;20.08;;
43841;SDS011;29495;49.970;20.842;2022-11-15T17:27:22;35.38;;;20.02;;
43841;SDS011;29495;49.970;20.842;2022-11-15T17:29:48;35.67;;;20.10;;
43841;SDS011;29495;49.970;20.842;2022-11-15T17:32:14;34.92;;;18.50;;
43841;SDS011;29495;49.970;20.842;2022-11-15T17:34:40;40.10;;;20.75;;
43841;SDS011;29495;49.970;20.842;2022-11-15T17:37:05;34.05;;;18.80;;
43841;SDS011;29495;49.970;20.842;2022-11-15T17:39:31;39.15;;;19.77;;
43841;SDS011;29495;49.970;20.842;2022-11-15T17:41:57;44.25;;;24.73;;
43841;SDS011;29495;49.970;20.842;2022-11-15T17:44:23;44.72;;;24.00;;
43841;SDS011;29495;49.970;20.842;2022-11-15T17:46:49;43.10;;;23.67;;
43841;SDS011;29495;49.970;20.842;2022-11-15T17:49:15;43.63;;;23.67;;
43841;SDS011;29495;49.970;20.842;2022-11-15T17:51:41;52.10;;;26.35;;
43841;SDS011;29495;49.970;20.842;2022-11-15T17:54:09;51.42;;;25.95;;
43841;SDS011;29495;49.970;20.842;2022-11-15T17:56:38;55.33;;;28.33;;
43841;SDS011;29495;49.970;20.842;2022-11-15T17:59:05;63.38;;;30.60;;
43841;SDS011;29495;49.970;20.842;2022-11-15T18:01:32;63.45;;;30.13;;
43841;SDS011;29495;49.970;20.842;2022-11-15T18:04:00;62.20;;;30.40;;
43841;SDS011;29495;49.970;20.842;2022-11-15T18:06:28;65.50;;;31.83;;
43841;SDS011;29495;49.970;20.842;2022-11-15T18:08:55;66.93;;;33.88;;
43841;SDS011;29495;49.970;20.842;2022-11-15T18:11:23;64.70;;;31.35;;
43841;SDS011;29495;49.970;20.842;2022-11-15T18:13:50;68.25;;;33.25;;
43841;SDS011;29495;49.970;20.842;2022-11-15T18:16:24;62.17;;;31.85;;
43841;SDS011;29495;49.970;20.842;2022-11-15T18:18:53;64.50;;;31.08;;
43841;SDS011;29495;49.970;20.842;2022-11-15T18:21:23;65.65;;;31.42;;
43841;SDS011;29495;49.970;20.842;2022-11-15T18:23:52;65.57;;;31.52;;